Terminal Aerodrome Forecast
Issued by NWS Sioux Falls, SD

Home | Current Version | Previous Version | Text Only | Print | Product List | Glossary On
Versions: 1 2 3 4 5 6 7 8 9 10 11 12 13
000
FTUS43 KFSD 182209 AAA
TAFHON
TAF AMD
KHON 182209Z 1822/1918 35018G28KT P6SM OVC018
     FM190400 36017G27KT 5SM -SN OVC020
     FM190700 36017G27KT 1SM -SN SCT010 OVC020=

USA.gov is the U.S. government's official web portal to all federal, state and local government web resources and services.